createdAt,value
2022-08-17T00:01:55.719Z,85.20
2022-08-17T00:04:22.409Z,85.20
2022-08-17T00:06:49.934Z,85.10
2022-08-17T00:09:18.736Z,85.10
2022-08-17T00:12:41.879Z,85.00
2022-08-17T00:14:34.306Z,85.50
2022-08-17T00:17:00.458Z,84.70
2022-08-17T00:19:26.880Z,85.10
2022-08-17T00:22:33.213Z,85.00
2022-08-17T00:24:43.091Z,84.30
2022-08-17T00:27:09.165Z,84.20
2022-08-17T00:29:35.509Z,84.30
2022-08-17T00:33:16.005Z,84.20
2022-08-17T00:34:56.924Z,84.10
2022-08-17T00:37:23.033Z,84.60
2022-08-17T00:39:49.317Z,84.00
2022-08-17T00:42:17.749Z,83.90
2022-08-17T00:44:45.924Z,83.80
2022-08-17T00:47:12.276Z,83.70
2022-08-17T00:49:38.396Z,83.60
2022-08-17T00:52:12.199Z,83.50
2022-08-17T00:54:42.808Z,83.40
2022-08-17T00:57:14.020Z,83.20
2022-08-17T00:59:55.967Z,83.20
2022-08-17T01:02:41.209Z,83.10
2022-08-17T01:05:14.084Z,82.90
2022-08-17T01:07:42.296Z,82.80
2022-08-17T01:10:58.228Z,82.70
2022-08-17T01:12:57.421Z,82.70
2022-08-17T01:15:26.232Z,82.70
2022-08-17T01:17:52.333Z,82.90
2022-08-17T01:20:18.749Z,82.90
2022-08-17T01:22:44.912Z,83.00
2022-08-17T01:25:11.943Z,82.90
2022-08-17T01:27:38.864Z,82.80
2022-08-17T01:30:57.252Z,83.30
2022-08-17T01:32:57.609Z,82.80
2022-08-17T01:35:23.838Z,82.40
2022-08-17T01:37:49.979Z,82.20
2022-08-17T01:40:48.733Z,81.90
2022-08-17T01:43:34.137Z,81.60
2022-08-17T01:46:02.619Z,81.20
2022-08-17T01:48:35.645Z,80.70
2022-08-17T01:51:02.534Z,80.30
2022-08-17T01:53:34.248Z,80.10
2022-08-17T01:56:06.081Z,79.90
2022-08-17T01:58:33.922Z,79.60
2022-08-17T02:01:01.759Z,79.50
2022-08-17T02:03:29.174Z,79.50
2022-08-17T02:05:56.280Z,79.50
2022-08-17T02:08:39.340Z,79.50
2022-08-17T02:11:14.189Z,79.60
2022-08-17T02:13:40.957Z,79.90
2022-08-17T02:16:07.570Z,80.20
2022-08-17T02:18:33.838Z,81.10
2022-08-17T02:21:00.154Z,82.40
2022-08-17T02:23:29.899Z,83.80
2022-08-17T02:25:58.428Z,85.50
2022-08-17T02:28:24.895Z,85.70
2022-08-17T02:31:01.746Z,86.50
2022-08-17T02:33:41.941Z,87.10
2022-08-17T02:36:11.938Z,87.60
2022-08-17T02:38:40.048Z,88.40
2022-08-17T02:41:09.001Z,89.10
2022-08-17T02:43:35.187Z,90.00
2022-08-17T02:46:04.421Z,90.10
2022-08-17T02:48:32.119Z,90.30
2022-08-17T02:50:59.608Z,90.40
2022-08-17T02:53:35.512Z,90.50
2022-08-17T02:56:02.963Z,90.70
2022-08-17T02:58:34.460Z,90.80
2022-08-17T03:01:06.933Z,91.10
2022-08-17T03:03:34.007Z,91.10
2022-08-17T03:06:02.023Z,91.20
2022-08-17T03:08:29.006Z,91.20
2022-08-17T03:10:55.880Z,91.30
2022-08-17T03:13:21.956Z,91.30
2022-08-17T03:15:48.619Z,91.20
2022-08-17T03:18:24.486Z,91.30
2022-08-17T03:20:58.994Z,91.30
2022-08-17T03:23:27.442Z,91.50
2022-08-17T03:25:54.601Z,91.60
2022-08-17T03:28:22.449Z,91.50
2022-08-17T03:30:50.379Z,91.40
2022-08-17T03:33:17.375Z,91.40
2022-08-17T03:35:44.170Z,91.30
2022-08-17T03:38:11.956Z,91.40
2022-08-17T03:40:57.337Z,91.50
2022-08-17T03:43:29.519Z,91.50
2022-08-17T03:46:28.864Z,91.50
2022-08-17T03:49:20.875Z,91.50
2022-08-17T03:52:05.811Z,91.60
2022-08-17T03:54:50.711Z,91.50
2022-08-17T03:57:18.425Z,91.40
2022-08-17T03:59:45.140Z,91.40
2022-08-17T04:02:17.915Z,91.60
2022-08-17T04:04:44.264Z,91.60
2022-08-17T04:07:10.636Z,91.50
2022-08-17T04:09:37.643Z,91.40
2022-08-17T04:12:04.535Z,91.50
2022-08-17T04:14:35.568Z,91.50
2022-08-17T04:17:05.851Z,91.60
2022-08-17T04:19:32.313Z,91.70
2022-08-17T04:21:59.905Z,91.70
2022-08-17T04:24:26.816Z,91.80
2022-08-17T04:26:54.698Z,91.80
2022-08-17T04:29:21.098Z,91.90
2022-08-17T04:31:47.655Z,91.80
2022-08-17T04:34:13.879Z,92.00
2022-08-17T04:36:40.035Z,92.00
2022-08-17T04:39:16.367Z,92.00
2022-08-17T04:42:00.938Z,92.00
2022-08-17T04:44:37.196Z,92.00
2022-08-17T04:47:04.816Z,92.00
2022-08-17T04:49:31.891Z,92.00
2022-08-17T04:52:04.161Z,92.00
2022-08-17T04:54:30.771Z,92.10
2022-08-17T04:56:56.917Z,92.20
2022-08-17T04:59:23.095Z,92.20
2022-08-17T05:01:51.370Z,92.20
2022-08-17T05:04:34.137Z,92.30
2022-08-17T05:07:01.677Z,92.50
2022-08-17T05:09:28.348Z,92.40
2022-08-17T05:11:56.151Z,92.50
2022-08-17T05:14:22.834Z,92.40
2022-08-17T05:17:00.987Z,92.10
2022-08-17T05:19:27.445Z,91.90
2022-08-17T05:21:54.119Z,91.70
2022-08-17T05:24:20.299Z,91.40
2022-08-17T05:27:06.632Z,91.20
2022-08-17T05:29:35.265Z,91.00
2022-08-17T05:32:47.896Z,90.80
2022-08-17T05:34:59.956Z,90.60
2022-08-17T05:37:26.132Z,90.60
2022-08-17T05:39:53.529Z,90.60
2022-08-17T05:42:19.819Z,90.60
2022-08-17T05:44:45.987Z,90.50
2022-08-17T05:47:12.230Z,90.40
2022-08-17T05:49:39.022Z,90.40
2022-08-17T05:52:11.284Z,90.40
2022-08-17T05:55:03.826Z,90.40
2022-08-17T05:57:43.366Z,90.50
2022-08-17T06:01:01.833Z,90.40
2022-08-17T06:03:48.840Z,90.40
2022-08-17T06:06:40.904Z,90.40
2022-08-17T06:09:37.186Z,90.40
2022-08-17T06:12:28.706Z,90.50
2022-08-17T06:15:07.019Z,90.50
2022-08-17T06:17:34.410Z,90.20
2022-08-17T06:20:10.155Z,90.20
2022-08-17T06:22:49.131Z,90.00
2022-08-17T06:25:22.133Z,89.70
2022-08-17T06:27:55.127Z,89.70
2022-08-17T06:30:25.671Z,89.50
2022-08-17T06:32:54.549Z,89.20
2022-08-17T06:35:49.265Z,89.10
2022-08-17T06:38:38.059Z,88.30
2022-08-17T06:41:42.851Z,87.30
2022-08-17T06:44:43.356Z,86.90
2022-08-17T06:47:31.026Z,87.00
2022-08-17T06:50:16.281Z,87.10
2022-08-17T06:53:02.591Z,86.90
2022-08-17T06:55:44.718Z,86.70
2022-08-17T06:58:16.254Z,86.50
2022-08-17T07:00:46.958Z,86.20
2022-08-17T07:03:38.317Z,85.10
2022-08-17T07:06:27.460Z,84.30
2022-08-17T07:09:02.009Z,84.10
2022-08-17T07:11:42.851Z,83.10
2022-08-17T07:14:43.149Z,82.30
2022-08-17T07:17:17.916Z,82.40
2022-08-17T07:19:47.952Z,82.20
2022-08-17T07:22:55.217Z,82.20
2022-08-17T07:25:23.357Z,82.50
2022-08-17T07:27:55.430Z,82.50
2022-08-17T07:30:25.477Z,82.80
2022-08-17T07:33:02.082Z,82.80
2022-08-17T07:35:31.366Z,83.00
2022-08-17T07:38:24.942Z,83.10
2022-08-17T07:40:56.996Z,83.20
2022-08-17T07:43:49.211Z,83.40
2022-08-17T07:46:53.678Z,83.40
2022-08-17T07:49:44.259Z,83.50
2022-08-17T07:52:50.770Z,83.90
2022-08-17T07:55:28.980Z,84.20
2022-08-17T07:57:57.562Z,84.40
2022-08-17T08:00:32.031Z,84.40
2022-08-17T08:03:14.554Z,84.50
2022-08-17T08:05:53.732Z,84.90
2022-08-17T08:08:27.801Z,85.00
2022-08-17T08:11:28.496Z,85.10
2022-08-17T08:13:54.620Z,85.10
2022-08-17T08:16:28.512Z,84.70
2022-08-17T08:18:58.430Z,85.00
2022-08-17T08:21:36.346Z,84.70
2022-08-17T08:24:34.035Z,84.60
2022-08-17T08:27:18.905Z,84.40
2022-08-17T08:30:00.238Z,84.40
2022-08-17T08:32:58.753Z,84.50
2022-08-17T08:35:47.860Z,84.30
2022-08-17T08:38:31.865Z,83.20
2022-08-17T08:41:19.647Z,81.20
2022-08-17T08:44:03.639Z,78.10
2022-08-17T08:47:02.196Z,75.50
2022-08-17T08:50:01.427Z,73.90
2022-08-17T08:52:41.156Z,73.00
2022-08-17T08:55:13.557Z,71.90
2022-08-17T08:57:55.431Z,71.30
2022-08-17T09:00:24.405Z,69.80
2022-08-17T09:03:12.515Z,70.10
2022-08-17T09:05:59.649Z,68.80
2022-08-17T09:08:46.847Z,68.90
2022-08-17T09:11:18.887Z,68.40
2022-08-17T09:14:01.337Z,68.60
2022-08-17T09:16:37.118Z,68.50
2022-08-17T09:19:10.638Z,68.70
2022-08-17T09:21:55.054Z,68.20
2022-08-17T09:24:39.358Z,67.80
2022-08-17T09:27:21.060Z,67.80
2022-08-17T09:29:58.174Z,68.40
2022-08-17T09:32:43.306Z,68.10
2022-08-17T09:35:09.840Z,67.80
2022-08-17T09:37:54.052Z,68.20
2022-08-17T09:40:31.859Z,68.10
2022-08-17T09:43:10.709Z,68.50
2022-08-17T09:45:50.027Z,69.20
2022-08-17T09:48:47.645Z,69.00
2022-08-17T09:51:22.231Z,68.90
2022-08-17T09:53:49.813Z,69.90
2022-08-17T09:56:36.925Z,70.20
2022-08-17T09:59:13.504Z,72.20
2022-08-17T10:01:49.910Z,74.20
2022-08-17T10:04:29.509Z,75.70
2022-08-17T10:07:20.718Z,77.10
2022-08-17T10:09:54.958Z,77.60
2022-08-17T10:12:47.069Z,77.30
2022-08-17T10:16:00.257Z,77.70
2022-08-17T10:18:46.419Z,77.70
2022-08-17T10:21:33.897Z,77.30
2022-08-17T10:24:35.009Z,76.40
2022-08-17T10:27:06.888Z,75.40
2022-08-17T10:29:53.330Z,74.90
2022-08-17T10:32:48.508Z,74.60
2022-08-17T10:35:28.653Z,73.70
2022-08-17T10:38:28.588Z,73.30
2022-08-17T10:41:15.588Z,72.70
2022-08-17T10:44:39.054Z,73.00
2022-08-17T10:47:03.125Z,73.10
2022-08-17T10:49:46.819Z,71.60
2022-08-17T10:52:19.138Z,71.80
2022-08-17T10:54:58.440Z,70.60
2022-08-17T10:57:31.538Z,70.10
2022-08-17T11:00:14.221Z,69.80
2022-08-17T11:02:48.488Z,69.50
2022-08-17T11:05:41.531Z,68.50
2022-08-17T11:08:21.795Z,67.60
2022-08-17T11:10:55.360Z,67.80
2022-08-17T11:13:46.921Z,67.10
2022-08-17T11:16:32.026Z,67.40
2022-08-17T11:19:25.980Z,68.20
2022-08-17T11:22:16.469Z,68.90
2022-08-17T11:24:47.182Z,68.70
2022-08-17T11:27:13.260Z,69.20
2022-08-17T11:29:53.674Z,70.20
2022-08-17T11:32:48.721Z,71.30
2022-08-17T11:35:29.583Z,72.50
2022-08-17T11:38:14.044Z,73.20
2022-08-17T11:41:23.749Z,74.40
2022-08-17T11:44:21.000Z,75.20
2022-08-17T11:48:16.419Z,75.50
2022-08-17T11:51:34.160Z,75.00
2022-08-17T11:54:31.832Z,76.30
2022-08-17T11:56:59.813Z,76.60
2022-08-17T11:59:32.148Z,76.80
2022-08-17T12:02:00.001Z,77.90
2022-08-17T12:04:32.642Z,78.70
2022-08-17T12:07:09.922Z,79.50
2022-08-17T12:09:41.253Z,80.30
2022-08-17T12:12:18.680Z,81.40
2022-08-17T12:15:08.840Z,82.20
2022-08-17T12:17:40.938Z,83.10
2022-08-17T12:20:18.794Z,84.10
2022-08-17T12:23:00.227Z,85.50
2022-08-17T12:25:43.662Z,86.00
2022-08-17T12:28:30.315Z,85.90
2022-08-17T12:31:03.899Z,86.30
2022-08-17T12:33:30.314Z,86.70
2022-08-17T12:36:14.548Z,86.60
2022-08-17T12:38:50.316Z,86.70
2022-08-17T12:41:29.894Z,86.70
2022-08-17T12:44:12.733Z,86.50
2022-08-17T12:46:53.955Z,85.90
2022-08-17T12:49:22.560Z,86.00
2022-08-17T12:51:50.816Z,85.80
2022-08-17T12:54:46.534Z,85.60
2022-08-17T12:57:16.105Z,86.20
2022-08-17T12:59:48.510Z,85.90
2022-08-17T13:02:47.644Z,85.70
2022-08-17T13:05:23.645Z,86.30
2022-08-17T13:07:50.209Z,86.80
2022-08-17T13:10:21.893Z,87.70
2022-08-17T13:12:50.286Z,88.30
2022-08-17T13:15:48.148Z,88.30
2022-08-17T13:18:39.243Z,88.60
2022-08-17T13:21:26.046Z,89.20
2022-08-17T13:24:04.052Z,89.50
2022-08-17T13:26:36.154Z,89.40
2022-08-17T13:29:28.711Z,89.10
2022-08-17T13:32:14.314Z,89.00
2022-08-17T13:35:12.994Z,88.80
2022-08-17T13:37:38.592Z,89.30
2022-08-17T13:40:09.831Z,89.40
2022-08-17T13:42:51.922Z,89.80
2022-08-17T13:45:36.646Z,89.90
2022-08-17T13:48:13.799Z,89.70
2022-08-17T13:51:03.989Z,89.60
2022-08-17T13:53:48.888Z,89.70
2022-08-17T13:56:38.386Z,89.70
2022-08-17T13:59:36.390Z,90.00
2022-08-17T14:02:12.482Z,90.00
2022-08-17T14:04:40.701Z,90.20
2022-08-17T14:07:13.481Z,90.30
2022-08-17T14:09:47.622Z,90.10
2022-08-17T14:12:17.319Z,90.00
2022-08-17T14:14:44.281Z,90.20
2022-08-17T14:17:11.396Z,90.30
2022-08-17T14:19:39.062Z,90.20
2022-08-17T14:22:10.898Z,90.10
2022-08-17T14:24:44.149Z,90.10
2022-08-17T14:27:11.533Z,90.00
2022-08-17T14:29:40.361Z,90.00
2022-08-17T14:32:17.215Z,89.80
2022-08-17T14:34:44.562Z,89.30
2022-08-17T14:37:11.579Z,89.40
2022-08-17T14:39:38.697Z,89.60
2022-08-17T14:42:05.101Z,89.00
2022-08-17T14:44:34.223Z,88.40
2022-08-17T14:47:00.327Z,87.80
2022-08-17T14:49:27.364Z,87.80
2022-08-17T14:51:53.511Z,87.50
2022-08-17T14:54:32.719Z,87.40
2022-08-17T14:57:11.553Z,87.50
2022-08-17T14:59:55.953Z,87.20
2022-08-17T15:02:29.840Z,87.30
2022-08-17T15:05:03.961Z,87.50
2022-08-17T15:07:30.867Z,87.60
2022-08-17T15:10:00.461Z,88.10
2022-08-17T15:12:32.312Z,88.10
2022-08-17T15:14:59.921Z,87.30
2022-08-17T15:17:26.156Z,87.10
2022-08-17T15:20:15.016Z,86.80
2022-08-17T15:22:43.375Z,86.10
2022-08-17T15:25:11.474Z,84.70
2022-08-17T15:27:37.969Z,83.20
2022-08-17T15:30:07.135Z,81.50
2022-08-17T15:32:35.693Z,81.40
2022-08-17T15:35:06.008Z,81.30
2022-08-17T15:37:32.693Z,80.60
2022-08-17T15:40:01.617Z,79.90
2022-08-17T15:42:28.616Z,80.00
2022-08-17T15:44:54.777Z,80.10
2022-08-17T15:47:21.893Z,80.40
2022-08-17T15:49:48.232Z,80.60
2022-08-17T15:52:24.241Z,80.80
2022-08-17T15:54:55.905Z,80.40
2022-08-17T15:57:23.874Z,81.00
2022-08-17T15:59:53.962Z,80.80
2022-08-17T16:03:46.393Z,81.50
2022-08-17T16:05:21.466Z,81.10
2022-08-17T16:07:50.432Z,80.80
2022-08-17T16:10:19.210Z,80.80
2022-08-17T16:12:48.090Z,81.20
2022-08-17T16:15:15.547Z,82.00
2022-08-17T16:17:42.219Z,82.50
2022-08-17T16:20:19.533Z,82.40
2022-08-17T16:22:48.359Z,82.50
2022-08-17T16:25:22.881Z,82.60
2022-08-17T16:28:09.527Z,82.60
2022-08-17T16:30:36.603Z,82.60
2022-08-17T16:33:03.217Z,83.00
2022-08-17T16:35:29.440Z,83.10
2022-08-17T16:37:59.148Z,83.60
2022-08-17T16:40:28.010Z,83.50
2022-08-17T16:42:54.870Z,83.70
2022-08-17T16:45:35.600Z,83.50
2022-08-17T16:48:02.022Z,82.70
2022-08-17T16:50:28.287Z,82.70
2022-08-17T16:53:09.593Z,82.60
2022-08-17T16:55:36.134Z,82.10
2022-08-17T16:58:08.182Z,82.00
2022-08-17T17:00:35.785Z,82.40
2022-08-17T17:03:19.940Z,82.80
2022-08-17T17:06:03.626Z,82.90
2022-08-17T17:08:59.722Z,83.20
2022-08-17T17:11:34.608Z,83.60
2022-08-17T17:14:06.027Z,83.90
2022-08-17T17:17:00.995Z,84.10
2022-08-17T17:19:40.607Z,84.00
2022-08-17T17:22:23.348Z,84.50
2022-08-17T17:25:17.786Z,85.10
2022-08-17T17:27:53.865Z,85.70
2022-08-17T17:30:26.468Z,86.00
2022-08-17T17:33:04.427Z,86.20
2022-08-17T17:35:40.193Z,86.50
2022-08-17T17:38:15.324Z,86.50
2022-08-17T17:40:49.735Z,86.60
2022-08-17T17:43:38.318Z,86.70
2022-08-17T17:46:37.222Z,87.30
2022-08-17T17:49:05.385Z,87.80
2022-08-17T17:52:09.555Z,87.20
2022-08-17T17:54:52.399Z,88.10
2022-08-17T17:57:30.996Z,88.80
2022-08-17T18:00:14.438Z,89.30
2022-08-17T18:03:00.706Z,90.00
2022-08-17T18:05:26.943Z,90.50
2022-08-17T18:08:18.452Z,90.70
2022-08-17T18:10:56.136Z,91.20
2022-08-17T18:13:52.788Z,91.50
2022-08-17T18:16:20.429Z,91.80
2022-08-17T18:18:47.979Z,91.80
2022-08-17T18:21:20.817Z,91.90
2022-08-17T18:23:58.969Z,92.40
2022-08-17T18:26:52.925Z,92.60
2022-08-17T18:29:33.729Z,92.70
2022-08-17T18:32:35.504Z,92.70
2022-08-17T18:35:27.088Z,92.90
2022-08-17T18:38:15.557Z,93.00
2022-08-17T18:40:44.180Z,93.10
2022-08-17T18:43:44.468Z,93.00
2022-08-17T18:46:28.869Z,93.10
2022-08-17T18:49:02.463Z,93.20
2022-08-17T18:51:40.921Z,93.30
2022-08-17T18:54:21.355Z,93.40
2022-08-17T18:56:56.538Z,93.30
2022-08-17T18:59:34.452Z,93.20
2022-08-17T19:02:19.765Z,93.00
2022-08-17T19:05:07.120Z,93.00
2022-08-17T19:07:45.599Z,92.90
2022-08-17T19:10:46.901Z,93.00
2022-08-17T19:13:23.953Z,93.00
2022-08-17T19:16:14.612Z,93.00
2022-08-17T19:19:13.704Z,93.10
2022-08-17T19:21:47.498Z,93.10
2022-08-17T19:24:22.271Z,93.00
2022-08-17T19:26:59.181Z,93.00
2022-08-17T19:29:53.264Z,93.10
2022-08-17T19:32:25.667Z,93.10
2022-08-17T19:34:52.266Z,93.20
2022-08-17T19:37:55.834Z,93.20
2022-08-17T19:40:52.711Z,93.30
2022-08-17T19:43:53.277Z,93.30
2022-08-17T19:46:43.077Z,93.40
2022-08-17T19:49:53.640Z,93.30
2022-08-17T19:52:40.061Z,93.50
2022-08-17T19:55:06.757Z,93.70
2022-08-17T19:57:55.317Z,93.90
2022-08-17T20:00:23.355Z,94.10
2022-08-17T20:03:12.442Z,94.20
2022-08-17T20:06:11.901Z,94.50
2022-08-17T20:08:46.734Z,94.70
2022-08-17T20:11:24.086Z,94.80
2022-08-17T20:14:36.663Z,95.00
2022-08-17T20:17:04.431Z,95.00
2022-08-17T20:19:51.667Z,94.90
2022-08-17T20:22:22.245Z,95.00
2022-08-17T20:25:01.866Z,95.00
2022-08-17T20:27:32.855Z,95.10
2022-08-17T20:30:11.247Z,95.20
2022-08-17T20:32:52.671Z,95.40
2022-08-17T20:35:26.286Z,95.50
2022-08-17T20:38:01.268Z,95.50
2022-08-17T20:40:34.643Z,95.40
2022-08-17T20:43:36.683Z,95.30
2022-08-17T20:46:31.732Z,95.40
2022-08-17T20:49:14.681Z,95.40
2022-08-17T20:52:01.343Z,95.30
2022-08-17T20:54:28.525Z,95.20
2022-08-17T20:56:57.713Z,95.10
2022-08-17T20:59:27.955Z,95.20
2022-08-17T21:02:12.445Z,95.20
2022-08-17T21:04:53.817Z,95.10
2022-08-17T21:07:42.639Z,95.10
2022-08-17T21:10:25.708Z,95.10
2022-08-17T21:12:57.648Z,95.20
2022-08-17T21:15:42.990Z,95.20
2022-08-17T21:18:27.890Z,95.30
2022-08-17T21:21:17.752Z,95.10
2022-08-17T21:23:46.890Z,95.00
2022-08-17T21:26:20.703Z,94.90
2022-08-17T21:29:30.101Z,94.90
2022-08-17T21:32:02.802Z,94.70
2022-08-17T21:34:45.535Z,94.70
2022-08-17T21:37:29.114Z,94.70
2022-08-17T21:40:10.317Z,94.70
2022-08-17T21:42:48.410Z,94.70
2022-08-17T21:45:31.368Z,94.70
2022-08-17T21:48:20.251Z,94.60
2022-08-17T21:50:57.050Z,94.70
2022-08-17T21:53:34.043Z,94.60
2022-08-17T21:56:04.410Z,94.70
2022-08-17T21:58:38.414Z,94.80
2022-08-17T22:01:22.801Z,94.90
2022-08-17T22:04:02.664Z,94.80
2022-08-17T22:06:34.724Z,94.70
2022-08-17T22:09:09.663Z,94.70
2022-08-17T22:11:51.816Z,94.80
2022-08-17T22:14:51.708Z,94.70
2022-08-17T22:17:21.729Z,94.60
2022-08-17T22:20:14.320Z,94.60
2022-08-17T22:23:07.975Z,94.50
2022-08-17T22:25:37.481Z,94.60
2022-08-17T22:28:09.865Z,94.80
2022-08-17T22:30:59.622Z,95.00
2022-08-17T22:34:07.321Z,95.20
2022-08-17T22:36:41.101Z,95.30
2022-08-17T22:39:09.916Z,95.10
2022-08-17T22:41:47.662Z,95.10
2022-08-17T22:44:23.424Z,95.10
2022-08-17T22:47:00.229Z,95.00
2022-08-17T22:49:35.873Z,95.10
2022-08-17T22:52:20.461Z,95.20
2022-08-17T22:55:09.107Z,95.20
2022-08-17T22:57:54.800Z,95.30
2022-08-17T23:00:41.316Z,95.30
2022-08-17T23:03:13.351Z,95.40
2022-08-17T23:05:44.377Z,95.40
2022-08-17T23:08:12.826Z,95.40
2022-08-17T23:10:41.185Z,95.40
2022-08-17T23:13:11.121Z,95.40
2022-08-17T23:15:40.117Z,95.40
2022-08-17T23:18:07.533Z,95.50
2022-08-17T23:20:36.537Z,95.60
2022-08-17T23:23:06.114Z,95.70
2022-08-17T23:25:35.349Z,95.70
2022-08-17T23:28:04.152Z,95.70
2022-08-17T23:30:34.758Z,95.80
2022-08-17T23:33:04.470Z,95.90
2022-08-17T23:35:39.575Z,95.90
2022-08-17T23:38:08.692Z,96.00
2022-08-17T23:40:35.100Z,96.00
2022-08-17T23:43:05.892Z,96.00
2022-08-17T23:45:43.800Z,95.90
2022-08-17T23:48:09.972Z,96.00
2022-08-17T23:50:38.298Z,95.80
2022-08-17T23:53:06.326Z,95.90
2022-08-17T23:55:33.985Z,95.90
2022-08-17T23:58:03.329Z,95.80
